sensor_id;sensor_type;location;lat;lon;timestamp;P1;durP1;ratioP1;P2;durP2;ratioP2
37891;SDS011;45797;47.466;9.486;2022-09-09T00:07:21;2.90;;;0.82;;
37891;SDS011;45797;47.466;9.486;2022-09-09T00:28:27;5.63;;;0.88;;
37891;SDS011;45797;47.466;9.486;2022-09-09T00:38:38;2.20;;;0.80;;
37891;SDS011;45797;47.466;9.486;2022-09-09T00:43:55;2.60;;;0.80;;
37891;SDS011;45797;47.466;9.486;2022-09-09T01:04:59;2.97;;;0.75;;
37891;SDS011;45797;47.466;9.486;2022-09-09T01:15:30;1.88;;;0.70;;
37891;SDS011;45797;47.466;9.486;2022-09-09T01:20:37;1.85;;;0.60;;
37891;SDS011;45797;47.466;9.486;2022-09-09T01:31:31;1.27;;;0.70;;
37891;SDS011;45797;47.466;9.486;2022-09-09T01:42:04;1.67;;;0.60;;
37891;SDS011;45797;47.466;9.486;2022-09-09T01:52:25;1.25;;;0.50;;
37891;SDS011;45797;47.466;9.486;2022-09-09T01:57:39;1.35;;;0.52;;
37891;SDS011;45797;47.466;9.486;2022-09-09T02:08:39;1.27;;;0.60;;
37891;SDS011;45797;47.466;9.486;2022-09-09T02:13:48;3.50;;;0.70;;
37891;SDS011;45797;47.466;9.486;2022-09-09T02:24:23;2.40;;;0.60;;
37891;SDS011;45797;47.466;9.486;2022-09-09T02:29:41;1.65;;;0.73;;
37891;SDS011;45797;47.466;9.486;2022-09-09T02:34:46;1.50;;;0.63;;
37891;SDS011;45797;47.466;9.486;2022-09-09T02:39:51;4.65;;;0.70;;
37891;SDS011;45797;47.466;9.486;2022-09-09T02:45:01;2.17;;;0.90;;
37891;SDS011;45797;47.466;9.486;2022-09-09T02:50:16;2.65;;;0.75;;
37891;SDS011;45797;47.466;9.486;2022-09-09T02:55:27;3.72;;;0.80;;
37891;SDS011;45797;47.466;9.486;2022-09-09T03:00:33;1.65;;;0.80;;
37891;SDS011;45797;47.466;9.486;2022-09-09T03:05:37;2.90;;;0.68;;
37891;SDS011;45797;47.466;9.486;2022-09-09T03:10:40;2.67;;;0.90;;
37891;SDS011;45797;47.466;9.486;2022-09-09T03:15:40;3.13;;;0.80;;
37891;SDS011;45797;47.466;9.486;2022-09-09T03:20:43;1.63;;;0.70;;
37891;SDS011;45797;47.466;9.486;2022-09-09T03:25:47;1.38;;;0.70;;
37891;SDS011;45797;47.466;9.486;2022-09-09T03:30:59;4.20;;;0.70;;
37891;SDS011;45797;47.466;9.486;2022-09-09T03:36:05;3.42;;;0.77;;
37891;SDS011;45797;47.466;9.486;2022-09-09T03:41:07;2.65;;;0.70;;
37891;SDS011;45797;47.466;9.486;2022-09-09T03:46:08;1.23;;;0.52;;
37891;SDS011;45797;47.466;9.486;2022-09-09T03:51:08;2.67;;;0.80;;
37891;SDS011;45797;47.466;9.486;2022-09-09T03:56:17;1.90;;;0.80;;
37891;SDS011;45797;47.466;9.486;2022-09-09T04:01:18;1.88;;;0.60;;
37891;SDS011;45797;47.466;9.486;2022-09-09T04:06:18;1.85;;;0.85;;
37891;SDS011;45797;47.466;9.486;2022-09-09T04:11:22;1.95;;;0.70;;
37891;SDS011;45797;47.466;9.486;2022-09-09T04:16:26;2.10;;;0.90;;
37891;SDS011;45797;47.466;9.486;2022-09-09T04:21:27;1.27;;;0.60;;
37891;SDS011;45797;47.466;9.486;2022-09-09T04:26:29;1.58;;;0.60;;
37891;SDS011;45797;47.466;9.486;2022-09-09T04:31:29;2.08;;;0.60;;
37891;SDS011;45797;47.466;9.486;2022-09-09T04:36:31;2.90;;;0.70;;
37891;SDS011;45797;47.466;9.486;2022-09-09T04:46:45;1.45;;;0.70;;
37891;SDS011;45797;47.466;9.486;2022-09-09T04:51:51;1.90;;;0.80;;
37891;SDS011;45797;47.466;9.486;2022-09-09T04:56:58;1.75;;;0.70;;
37891;SDS011;45797;47.466;9.486;2022-09-09T05:02:08;2.63;;;0.55;;
37891;SDS011;45797;47.466;9.486;2022-09-09T05:07:10;1.23;;;0.60;;
37891;SDS011;45797;47.466;9.486;2022-09-09T05:12:15;1.63;;;0.70;;
37891;SDS011;45797;47.466;9.486;2022-09-09T05:17:23;1.40;;;0.55;;
37891;SDS011;45797;47.466;9.486;2022-09-09T05:22:34;2.90;;;0.80;;
37891;SDS011;45797;47.466;9.486;2022-09-09T05:27:42;1.80;;;0.60;;
37891;SDS011;45797;47.466;9.486;2022-09-09T05:32:43;1.73;;;0.70;;
37891;SDS011;45797;47.466;9.486;2022-09-09T05:37:44;2.33;;;0.80;;
37891;SDS011;45797;47.466;9.486;2022-09-09T05:42:59;1.55;;;0.60;;
37891;SDS011;45797;47.466;9.486;2022-09-09T05:47:59;3.15;;;0.85;;
37891;SDS011;45797;47.466;9.486;2022-09-09T05:53:01;1.60;;;0.70;;
37891;SDS011;45797;47.466;9.486;2022-09-09T05:58:04;3.80;;;0.73;;
37891;SDS011;45797;47.466;9.486;2022-09-09T06:03:03;1.65;;;0.75;;
37891;SDS011;45797;47.466;9.486;2022-09-09T06:08:07;1.48;;;0.75;;
37891;SDS011;45797;47.466;9.486;2022-09-09T06:13:08;2.63;;;0.80;;
37891;SDS011;45797;47.466;9.486;2022-09-09T06:18:11;1.40;;;0.60;;
37891;SDS011;45797;47.466;9.486;2022-09-09T06:23:11;2.03;;;0.75;;
37891;SDS011;45797;47.466;9.486;2022-09-09T06:28:12;2.55;;;0.63;;
37891;SDS011;45797;47.466;9.486;2022-09-09T06:33:20;2.72;;;1.30;;
37891;SDS011;45797;47.466;9.486;2022-09-09T06:38:30;3.22;;;1.35;;
37891;SDS011;45797;47.466;9.486;2022-09-09T06:43:30;2.97;;;0.90;;
37891;SDS011;45797;47.466;9.486;2022-09-09T06:48:33;3.33;;;0.80;;
37891;SDS011;45797;47.466;9.486;2022-09-09T06:53:34;2.38;;;0.73;;
37891;SDS011;45797;47.466;9.486;2022-09-09T06:58:42;1.40;;;0.70;;
37891;SDS011;45797;47.466;9.486;2022-09-09T07:03:55;7.20;;;1.45;;
37891;SDS011;45797;47.466;9.486;2022-09-09T07:09:00;3.13;;;0.73;;
37891;SDS011;45797;47.466;9.486;2022-09-09T07:14:10;2.13;;;1.10;;
37891;SDS011;45797;47.466;9.486;2022-09-09T07:19:16;2.58;;;0.90;;
37891;SDS011;45797;47.466;9.486;2022-09-09T07:24:19;1.63;;;0.70;;
37891;SDS011;45797;47.466;9.486;2022-09-09T07:29:20;1.30;;;0.65;;
37891;SDS011;45797;47.466;9.486;2022-09-09T07:34:20;3.30;;;0.82;;
37891;SDS011;45797;47.466;9.486;2022-09-09T07:39:21;2.17;;;0.90;;
37891;SDS011;45797;47.466;9.486;2022-09-09T07:56:44;1.08;;;0.50;;
37891;SDS011;45797;47.466;9.486;2022-09-09T08:01:52;2.67;;;0.70;;
37891;SDS011;45797;47.466;9.486;2022-09-09T08:06:56;2.22;;;0.65;;
37891;SDS011;45797;47.466;9.486;2022-09-09T08:17:27;1.58;;;0.70;;
37891;SDS011;45797;47.466;9.486;2022-09-09T08:22:27;2.72;;;0.70;;
37891;SDS011;45797;47.466;9.486;2022-09-09T08:27:42;1.33;;;0.68;;
37891;SDS011;45797;47.466;9.486;2022-09-09T08:37:57;2.40;;;0.75;;
37891;SDS011;45797;47.466;9.486;2022-09-09T08:53:51;1.92;;;0.85;;
37891;SDS011;45797;47.466;9.486;2022-09-09T08:58:57;3.38;;;0.80;;
37891;SDS011;45797;47.466;9.486;2022-09-09T09:15:34;4.63;;;1.58;;
37891;SDS011;45797;47.466;9.486;2022-09-09T09:20:42;2.42;;;1.08;;
37891;SDS011;45797;47.466;9.486;2022-09-09T09:26:12;4.25;;;1.23;;
37891;SDS011;45797;47.466;9.486;2022-09-09T09:31:12;4.30;;;0.90;;
37891;SDS011;45797;47.466;9.486;2022-09-09T09:36:16;1.75;;;0.68;;
37891;SDS011;45797;47.466;9.486;2022-09-09T09:41:40;3.17;;;0.63;;
37891;SDS011;45797;47.466;9.486;2022-09-09T09:46:42;1.60;;;0.60;;
37891;SDS011;45797;47.466;9.486;2022-09-09T09:57:11;3.38;;;0.80;;
37891;SDS011;45797;47.466;9.486;2022-09-09T10:13:18;3.15;;;0.70;;
37891;SDS011;45797;47.466;9.486;2022-09-09T10:29:21;1.73;;;0.70;;
37891;SDS011;45797;47.466;9.486;2022-09-09T10:46:18;4.95;;;0.82;;
37891;SDS011;45797;47.466;9.486;2022-09-09T11:07:37;1.73;;;0.70;;
37891;SDS011;45797;47.466;9.486;2022-09-09T11:12:44;3.33;;;0.98;;
37891;SDS011;45797;47.466;9.486;2022-09-09T11:17:58;3.15;;;0.65;;
37891;SDS011;45797;47.466;9.486;2022-09-09T11:39:39;1.65;;;0.75;;
37891;SDS011;45797;47.466;9.486;2022-09-09T11:45:25;2.75;;;1.08;;
37891;SDS011;45797;47.466;9.486;2022-09-09T11:50:30;3.55;;;1.00;;
37891;SDS011;45797;47.466;9.486;2022-09-09T11:55:37;2.03;;;0.82;;
37891;SDS011;45797;47.466;9.486;2022-09-09T12:00:51;2.15;;;1.00;;
37891;SDS011;45797;47.466;9.486;2022-09-09T12:05:52;1.60;;;0.82;;
37891;SDS011;45797;47.466;9.486;2022-09-09T12:10:58;2.50;;;1.00;;
37891;SDS011;45797;47.466;9.486;2022-09-09T12:16:03;2.75;;;1.00;;
37891;SDS011;45797;47.466;9.486;2022-09-09T12:21:16;2.40;;;1.05;;
37891;SDS011;45797;47.466;9.486;2022-09-09T12:32:13;2.95;;;1.15;;
37891;SDS011;45797;47.466;9.486;2022-09-09T12:48:27;2.28;;;0.90;;
37891;SDS011;45797;47.466;9.486;2022-09-09T12:53:38;3.20;;;0.60;;
37891;SDS011;45797;47.466;9.486;2022-09-09T12:58:55;2.83;;;0.70;;
37891;SDS011;45797;47.466;9.486;2022-09-09T13:04:18;2.05;;;0.52;;
37891;SDS011;45797;47.466;9.486;2022-09-09T13:09:23;0.95;;;0.50;;
37891;SDS011;45797;47.466;9.486;2022-09-09T13:14:33;1.30;;;0.65;;
37891;SDS011;45797;47.466;9.486;2022-09-09T13:19:37;5.80;;;0.90;;
37891;SDS011;45797;47.466;9.486;2022-09-09T13:35:27;2.13;;;0.70;;
37891;SDS011;45797;47.466;9.486;2022-09-09T13:40:37;2.45;;;0.70;;
37891;SDS011;45797;47.466;9.486;2022-09-09T13:45:37;1.60;;;0.80;;
37891;SDS011;45797;47.466;9.486;2022-09-09T13:51:38;1.73;;;0.70;;
37891;SDS011;45797;47.466;9.486;2022-09-09T13:56:27;2.25;;;0.70;;
37891;SDS011;45797;47.466;9.486;2022-09-09T14:01:45;1.95;;;0.90;;
37891;SDS011;45797;47.466;9.486;2022-09-09T14:06:58;2.17;;;0.88;;
37891;SDS011;45797;47.466;9.486;2022-09-09T14:12:09;3.03;;;0.95;;
37891;SDS011;45797;47.466;9.486;2022-09-09T14:17:29;3.20;;;0.80;;
37891;SDS011;45797;47.466;9.486;2022-09-09T14:22:36;2.05;;;0.73;;
37891;SDS011;45797;47.466;9.486;2022-09-09T14:27:42;1.67;;;0.77;;
37891;SDS011;45797;47.466;9.486;2022-09-09T14:32:43;2.22;;;1.13;;
37891;SDS011;45797;47.466;9.486;2022-09-09T14:37:45;2.58;;;0.90;;
37891;SDS011;45797;47.466;9.486;2022-09-09T14:42:46;4.70;;;1.05;;
37891;SDS011;45797;47.466;9.486;2022-09-09T14:47:47;2.00;;;0.90;;
37891;SDS011;45797;47.466;9.486;2022-09-09T14:53:03;2.20;;;1.02;;
37891;SDS011;45797;47.466;9.486;2022-09-09T14:58:13;4.32;;;0.80;;
37891;SDS011;45797;47.466;9.486;2022-09-09T15:03:25;1.63;;;0.93;;
37891;SDS011;45797;47.466;9.486;2022-09-09T15:08:26;1.90;;;0.90;;
37891;SDS011;45797;47.466;9.486;2022-09-09T15:13:26;1.67;;;0.73;;
37891;SDS011;45797;47.466;9.486;2022-09-09T15:23:45;3.28;;;1.00;;
37891;SDS011;45797;47.466;9.486;2022-09-09T15:28:46;4.50;;;1.00;;
37891;SDS011;45797;47.466;9.486;2022-09-09T15:33:54;2.17;;;1.00;;
37891;SDS011;45797;47.466;9.486;2022-09-09T15:39:10;2.35;;;1.00;;
37891;SDS011;45797;47.466;9.486;2022-09-09T15:54:42;2.85;;;0.90;;
37891;SDS011;45797;47.466;9.486;2022-09-09T15:59:53;1.80;;;0.80;;
37891;SDS011;45797;47.466;9.486;2022-09-09T16:04:54;2.47;;;0.80;;
37891;SDS011;45797;47.466;9.486;2022-09-09T16:20:23;2.03;;;0.90;;
37891;SDS011;45797;47.466;9.486;2022-09-09T16:30:54;2.10;;;0.82;;
37891;SDS011;45797;47.466;9.486;2022-09-09T16:35:55;2.40;;;0.90;;
37891;SDS011;45797;47.466;9.486;2022-09-09T16:41:00;1.95;;;1.00;;
37891;SDS011;45797;47.466;9.486;2022-09-09T16:56:37;2.42;;;1.02;;
37891;SDS011;45797;47.466;9.486;2022-09-09T17:01:42;2.17;;;1.02;;
37891;SDS011;45797;47.466;9.486;2022-09-09T17:06:53;4.18;;;1.00;;
37891;SDS011;45797;47.466;9.486;2022-09-09T17:11:56;2.50;;;1.00;;
37891;SDS011;45797;47.466;9.486;2022-09-09T17:17:02;2.08;;;1.20;;
37891;SDS011;45797;47.466;9.486;2022-09-09T17:22:14;2.17;;;1.00;;
37891;SDS011;45797;47.466;9.486;2022-09-09T17:27:15;2.53;;;1.17;;
37891;SDS011;45797;47.466;9.486;2022-09-09T17:32:34;1.95;;;0.95;;
37891;SDS011;45797;47.466;9.486;2022-09-09T17:42:40;2.22;;;1.05;;
37891;SDS011;45797;47.466;9.486;2022-09-09T17:47:42;1.83;;;0.90;;
37891;SDS011;45797;47.466;9.486;2022-09-09T17:52:42;2.22;;;0.90;;
37891;SDS011;45797;47.466;9.486;2022-09-09T17:57:41;3.55;;;0.90;;
37891;SDS011;45797;47.466;9.486;2022-09-09T18:02:53;2.63;;;0.80;;
37891;SDS011;45797;47.466;9.486;2022-09-09T18:07:53;2.45;;;1.00;;
37891;SDS011;45797;47.466;9.486;2022-09-09T18:12:52;1.55;;;0.77;;
37891;SDS011;45797;47.466;9.486;2022-09-09T18:23:05;2.38;;;0.93;;
37891;SDS011;45797;47.466;9.486;2022-09-09T18:28:16;2.72;;;1.00;;
37891;SDS011;45797;47.466;9.486;2022-09-09T18:33:17;3.38;;;0.80;;
37891;SDS011;45797;47.466;9.486;2022-09-09T18:38:17;2.88;;;0.50;;
37891;SDS011;45797;47.466;9.486;2022-09-09T18:48:32;1.73;;;0.50;;
37891;SDS011;45797;47.466;9.486;2022-09-09T18:53:33;2.10;;;0.50;;
37891;SDS011;45797;47.466;9.486;2022-09-09T18:58:42;0.88;;;0.40;;
37891;SDS011;45797;47.466;9.486;2022-09-09T19:03:44;1.73;;;0.40;;
37891;SDS011;45797;47.466;9.486;2022-09-09T19:08:45;2.92;;;0.40;;
37891;SDS011;45797;47.466;9.486;2022-09-09T19:13:52;1.08;;;0.40;;
37891;SDS011;45797;47.466;9.486;2022-09-09T19:24:20;1.25;;;0.50;;
37891;SDS011;45797;47.466;9.486;2022-09-09T19:29:24;1.15;;;0.55;;
37891;SDS011;45797;47.466;9.486;2022-09-09T19:34:35;0.82;;;0.43;;
37891;SDS011;45797;47.466;9.486;2022-09-09T19:39:37;1.52;;;0.70;;
37891;SDS011;45797;47.466;9.486;2022-09-09T19:44:56;1.00;;;0.43;;
37891;SDS011;45797;47.466;9.486;2022-09-09T19:49:56;1.25;;;0.55;;
37891;SDS011;45797;47.466;9.486;2022-09-09T19:55:08;1.58;;;0.50;;
37891;SDS011;45797;47.466;9.486;2022-09-09T20:00:20;1.55;;;0.50;;
37891;SDS011;45797;47.466;9.486;2022-09-09T20:10:50;0.82;;;0.40;;
37891;SDS011;45797;47.466;9.486;2022-09-09T20:16:07;1.27;;;0.40;;
37891;SDS011;45797;47.466;9.486;2022-09-09T20:21:14;2.17;;;0.50;;
37891;SDS011;45797;47.466;9.486;2022-09-09T20:32:01;3.47;;;0.65;;
37891;SDS011;45797;47.466;9.486;2022-09-09T20:37:01;3.33;;;0.70;;
37891;SDS011;45797;47.466;9.486;2022-09-09T20:42:10;3.47;;;0.70;;
37891;SDS011;45797;47.466;9.486;2022-09-09T20:52:14;3.78;;;0.75;;
37891;SDS011;45797;47.466;9.486;2022-09-09T20:57:35;1.95;;;0.43;;
37891;SDS011;45797;47.466;9.486;2022-09-09T21:02:46;1.98;;;0.57;;
37891;SDS011;45797;47.466;9.486;2022-09-09T21:07:52;0.98;;;0.50;;
37891;SDS011;45797;47.466;9.486;2022-09-09T21:12:56;2.00;;;0.50;;
37891;SDS011;45797;47.466;9.486;2022-09-09T21:18:06;0.98;;;0.40;;
37891;SDS011;45797;47.466;9.486;2022-09-09T21:23:13;1.92;;;0.60;;
37891;SDS011;45797;47.466;9.486;2022-09-09T21:28:24;0.85;;;0.40;;
37891;SDS011;45797;47.466;9.486;2022-09-09T21:33:25;1.30;;;0.50;;
37891;SDS011;45797;47.466;9.486;2022-09-09T21:38:36;1.30;;;0.43;;
37891;SDS011;45797;47.466;9.486;2022-09-09T21:48:50;1.20;;;0.50;;
37891;SDS011;45797;47.466;9.486;2022-09-09T21:54:00;3.60;;;0.43;;
37891;SDS011;45797;47.466;9.486;2022-09-09T21:59:07;1.08;;;0.52;;
37891;SDS011;45797;47.466;9.486;2022-09-09T22:04:07;3.03;;;0.40;;
37891;SDS011;45797;47.466;9.486;2022-09-09T22:09:07;0.75;;;0.40;;
37891;SDS011;45797;47.466;9.486;2022-09-09T22:14:07;0.90;;;0.40;;
37891;SDS011;45797;47.466;9.486;2022-09-09T22:24:56;1.02;;;0.40;;
37891;SDS011;45797;47.466;9.486;2022-09-09T22:30:06;0.82;;;0.32;;
37891;SDS011;45797;47.466;9.486;2022-09-09T22:35:07;2.30;;;0.57;;
37891;SDS011;45797;47.466;9.486;2022-09-09T22:40:16;3.00;;;0.50;;
37891;SDS011;45797;47.466;9.486;2022-09-09T22:45:17;1.85;;;0.65;;
37891;SDS011;45797;47.466;9.486;2022-09-09T22:50:20;1.38;;;0.43;;
37891;SDS011;45797;47.466;9.486;2022-09-09T23:00:26;3.42;;;0.60;;
37891;SDS011;45797;47.466;9.486;2022-09-09T23:21:17;1.50;;;0.50;;
37891;SDS011;45797;47.466;9.486;2022-09-09T23:26:18;2.40;;;0.55;;
37891;SDS011;45797;47.466;9.486;2022-09-09T23:31:26;0.50;;;0.30;;
37891;SDS011;45797;47.466;9.486;2022-09-09T23:36:29;1.10;;;0.47;;
37891;SDS011;45797;47.466;9.486;2022-09-09T23:41:29;1.55;;;0.45;;
37891;SDS011;45797;47.466;9.486;2022-09-09T23:46:32;1.55;;;0.50;;
37891;SDS011;45797;47.466;9.486;2022-09-09T23:51:35;1.95;;;0.50;;
37891;SDS011;45797;47.466;9.486;2022-09-09T23:56:47;0.80;;;0.40;;
